X  Sluiten METAR luchtvaart weer gegevens      EHKD De Kooy Airport
Temperatuur
19°C Temperatuur
17°C Dauwpunt
88% Vochtigheid



Wind
3 M/S
7 MPH
11 KM/U
6 KTS



90°
O
Huidig weer

Wat bewolking Wat bewolking
Luchtdruk 1019.98 (hPa) - 30.12 (inHg)
Zicht 6 (mijl) - 9.7 (km)
Vliegveld
Vliegveld code EHKD

Locatie : De Kooy Airport
Afstand: 34 (km)

Metar:
EHKD 190255Z AUTO 09006KT 9999 FEW015CB SCT140 19/17 Q1020 BLU

Tijd: 19-07-2024 04:55 CEST